KSOP/SOP METAR and TAF weather

Enter ICAO airport designator
Station Type Date Time Source
KSOP METAR 2021/09/25 11:56 UTC NOAA

KSOP 251156Z AUTO 00000KT 10SM CLR 12/10 A3011 RMK AO2 SLP199 T01170100 10117 20083 53007


Station Type Date Time Source
KSOP Decoded METAR 2021/09/25 11:56 UTC NOAA

Pinehurst/Southern Pines, Moore County Airport, NC, United States (KSOP) 35-14N 079-24W
Sep 25, 2021 - 07:56 AM EDT / 2021.09.25 1156 UTC
Wind: Calm:0
Visibility: 10 mile(s):0
Sky conditions: clear
Temperature: 53.1 F (11.7 C)
Dew Point: 50.0 F (10.0 C)
Relative Humidity: 89%
Pressure (altimeter): 30.11 in. Hg (1019 hPa)
Pressure tendency: 0.02 inches (0.7 hPa) higher than three hours ago
ob: KSOP 251156Z AUTO 00000KT 10SM CLR 12/10 A3011 RMK AO2 SLP199 T01170100 10117 20083 53007
cycle: 12

Station Type Date Time Source
KSOP TAF UTC NOAA

Error!

Example: see airport list